Nearby METAR Reports

 

LIPX - Villafranca(Cv/M, Italy
Distance from station: S 60km
Updated: Sun, 05/07/2020 09:50
Clear
Clear
 Wind from varies
Wind: varies 7 km/h
Temperature: 26°C
Dew Point: 17°C
Humidity: 58%
Barometer: 1017 hPa
Summary: Clear
Visibility: greater than 10 km
2020/07/05 07:50 LIPX 050750Z VRB04KT CAVOK 26/17 Q1017
LIPB - Bolzano(Civ/It-A, Italy
Distance from station: NNE 68km
Updated: Sun, 05/07/2020 09:50
Clear
Clear
 Wind from varies
Wind: varies 4 km/h
Temperature: 24°C
Dew Point: 14°C
Humidity: 54%
Barometer: 1018 hPa
Summary: Clear
Visibility: greater than 10 km
2020/07/05 07:50 LIPB 050750Z VRB02KT CAVOK 24/14 Q1018
 
LIPO - Brescia/Montichi, Italy
Distance from station: SW 71km
Updated: Sun, 05/07/2020 09:50
Clear
Clear
 Wind from ENE
Wind: ENE 15 km/h
Temperature: 26°C
Dew Point: 16°C
Humidity: 54%
Barometer: 1018 hPa
Summary: Clear
Visibility: greater than 10 km
2020/07/05 07:50 LIPO 050750Z 07008KT 030V100 CAVOK 26/16 Q1018
LIPL - Ghedi (it-Afb), Italy
Distance from station: SW 75km
Updated: Sun, 05/07/2020 09:55
Clear
Clear
 Wind from E
Wind: E 15 km/h
Temperature: 26°C
Dew Point: 17°C
Humidity: 58%
Barometer: 1017 hPa
Summary: Clear
Visibility: greater than 10 km
2020/07/05 07:55 LIPL 050755Z 09008KT CAVOK 26/17 Q1017
 
LIVR - Rolle Pass, Italy
Distance from station: ENE 78km
Updated: Sun, 05/07/2020 09:55
Clear
Clear
 Wind from W
Wind: W 6 km/h
Temperature: 13°C
Dew Point: 1°C
Humidity: 44%
Barometer: 1026 hPa
Summary: Clear
Visibility: greater than 10 km
2020/07/05 07:55 LIVR 050755Z 27003KT CAVOK 13/01 Q1026
LIPS - Istrana (it-Afb), Italy
Distance from station: ESE 96km
Updated: Sun, 05/07/2020 09:55
Clear
Clear
 Wind from varies
Wind: varies 0 km/h
Temperature: 27°C
Heat Index: 28°C
Dew Point: 18°C
Humidity: 58%
Barometer: 1017 hPa
Summary: Clear
Visibility: greater than 10 km
2020/07/05 07:55 LIPS 050755Z /////KT CAVOK 27/18 Q1017
 
LIME - Bergamo/Orio Ser, Italy
Distance from station: WSW 99km
Updated: Sun, 05/07/2020 09:50
Clear
Clear
 Wind from ESE
Wind: ESE 7 km/h
Temperature: 25°C
Dew Point: 18°C
Humidity: 65%
Barometer: 1018 hPa
Summary: Clear
Visibility: greater than 10 km
2020/07/05 07:50 LIME 050750Z 12004KT 090V150 CAVOK 25/18 Q1018 NOSIG
LIPH - Treviso(Civ/It-A, Italy
Distance from station: ESE 103km
Updated: Sun, 05/07/2020 09:50
Clear
Clear
 Wind from NE
Wind: NE 9 km/h
Temperature: 26°C
Dew Point: 14°C
Humidity: 48%
Barometer: 1018 hPa
Summary: Clear
Visibility: greater than 10 km
2020/07/05 07:50 LIPH 050750Z 04005KT 010V080 CAVOK 26/14 Q1018
 
LSZS - Samedan, Switzerland
Distance from station: NW 104km
Updated: Sun, 05/07/2020 10:20
Clear
Clear
 Wind from varies
Wind: varies 4 km/h
Temperature: 16°C
Dew Point: 4°C
Humidity: 45%
Barometer: 1025 hPa
Summary: Clear
Visibility: greater than 10 km
2020/07/05 08:20 LSZS 050820Z VRB02KT CAVOK 16/04 Q1025 RMK F TL170
LIVE - Resia Pass, Italy
Distance from station: NNW 108km
Updated: Sun, 05/07/2020 09:55
Clear
Clear
 Wind from N
Wind: N 9 km/h
Temperature: 15°C
Dew Point: 5°C
Humidity: 51%
Barometer: 1023 hPa
Summary: Clear
Visibility: greater than 10 km
2020/07/05 07:55 LIVE 050755Z 35005KT CAVOK 15/05 Q1023
 
LIPZ - Venezia/Tessera, Italy
Distance from station: ESE 122km
Updated: Sun, 05/07/2020 09:50
Clear
Clear
 Wind from ENE
Wind: ENE 13 km/h
Temperature: 26°C
Dew Point: 14°C
Humidity: 48%
Barometer: 1017 hPa
Summary: Clear
Visibility: greater than 10 km
2020/07/05 07:50 LIPZ 050750Z 06007KT CAVOK 26/14 Q1017 NOSIG
LIMP - Parma, Italy
Distance from station: SSW 132km
Updated: Sun, 05/07/2020 09:50
Clear
Clear
 Wind from varies
Wind: varies 4 km/h
Temperature: 26°C
Dew Point: 18°C
Humidity: 61%
Barometer: 1017 hPa
Summary: Clear
Visibility: greater than 10 km
2020/07/05 07:50 LIMP 050750Z VRB02KT CAVOK 26/18 Q1017
 
LIVD - Dobbiaco, Italy
Distance from station: NE 134km
Updated: Sun, 05/07/2020 09:55
Clear
Clear
 Wind from varies
Wind: varies 0 km/h
Temperature: 18°C
Dew Point: 9°C
Humidity: 56%
Barometer: 1023 hPa
Summary: Clear
Visibility: greater than 10 km
2020/07/05 07:55 LIVD 050755Z /////KT CAVOK 18/09 Q1023
LIPF - Ferrara (aut), Italy
Distance from station: SSE 135km
Updated: Sun, 05/07/2020 09:55
Clear
Clear
 Wind from varies
Wind: varies 0 km/h
Temperature: 27°C
Heat Index: 28°C
Dew Point: 18°C
Humidity: 58%
Barometer: 1017 hPa
Summary: Clear
Visibility: greater than 10 km
2020/07/05 07:55 LIPF 050755Z /////KT CAVOK 27/18 Q1017
 
LIML - Milano/Linate, Italy
Distance from station: WSW 137km
Updated: Sun, 05/07/2020 09:20
Clear
Clear
 Wind from E
Wind: E 6 km/h
Temperature: 25°C
Dew Point: 19°C
Humidity: 69%
Barometer: 1018 hPa
Summary: Clear
Visibility: greater than 10 km
2020/07/05 07:20 LIML 050720Z 08003KT 010V140 CAVOK 25/19 Q1018 NOSIG
LIMS - Piacenza (it-Afb, Italy
Distance from station: SW 145km
Updated: Sun, 05/07/2020 09:55
Clear
Clear
 Wind from varies
Wind: varies 0 km/h
Temperature: 25°C
Dew Point: 18°C
Humidity: 65%
Barometer: 1017 hPa
Summary: Clear
Visibility: greater than 10 km
2020/07/05 07:55 LIMS 050755Z /////KT CAVOK 25/18 Q1017